createdAt,value
2023-04-17T00:01:45.289Z,1.40
2023-04-17T00:04:15.849Z,1.30
2023-04-17T00:06:54.562Z,1.27
2023-04-17T00:09:34.810Z,1.53
2023-04-17T00:12:08.954Z,1.27
2023-04-17T00:14:39.330Z,1.30
2023-04-17T00:17:13.137Z,1.40
2023-04-17T00:19:44.657Z,1.00
2023-04-17T00:22:21.025Z,1.10
2023-04-17T00:24:54.636Z,1.73
2023-04-17T00:27:24.156Z,1.60
2023-04-17T00:29:54.697Z,1.97
2023-04-17T00:32:25.678Z,1.63
2023-04-17T00:35:10.748Z,1.67
2023-04-17T00:37:44.524Z,1.10
2023-04-17T00:40:15.514Z,1.50
2023-04-17T00:42:46.401Z,1.73
2023-04-17T00:45:27.133Z,1.00
2023-04-17T00:48:01.069Z,1.37
2023-04-17T00:50:30.948Z,1.30
2023-04-17T00:53:15.405Z,1.03
2023-04-17T00:55:44.825Z,1.40
2023-04-17T00:58:19.985Z,1.50
2023-04-17T01:00:58.638Z,1.20
2023-04-17T01:03:34.715Z,1.60
2023-04-17T01:06:11.347Z,1.10
2023-04-17T01:08:46.208Z,1.10
2023-04-17T01:11:18.757Z,1.30
2023-04-17T01:13:52.543Z,1.13
2023-04-17T01:16:30.381Z,0.90
2023-04-17T01:19:14.130Z,0.97
2023-04-17T01:21:44.872Z,1.20
2023-04-17T01:24:16.673Z,1.48
2023-04-17T01:26:47.919Z,1.60
2023-04-17T01:29:18.227Z,1.67
2023-04-17T01:31:46.318Z,1.30
2023-04-17T01:34:32.797Z,1.47
2023-04-17T01:37:08.272Z,1.60
2023-04-17T01:39:40.151Z,1.43
2023-04-17T01:42:13.625Z,1.30
2023-04-17T01:44:41.365Z,1.63
2023-04-17T01:47:11.260Z,1.30
2023-04-17T01:49:56.133Z,2.03
2023-04-17T01:52:26.716Z,1.63
2023-04-17T01:57:43.843Z,1.70
2023-04-17T02:00:15.163Z,1.13
2023-04-17T02:02:57.046Z,2.03
2023-04-17T02:05:27.917Z,1.43
2023-04-17T02:08:02.229Z,2.00
2023-04-17T02:10:39.995Z,1.50
2023-04-17T02:13:17.040Z,1.87
2023-04-17T02:15:47.687Z,1.73
2023-04-17T02:18:23.429Z,1.67
2023-04-17T02:20:52.771Z,1.13
2023-04-17T02:23:27.307Z,1.50
2023-04-17T02:26:05.139Z,2.00
2023-04-17T02:28:35.776Z,1.50
2023-04-17T02:31:11.042Z,1.37
2023-04-17T02:36:27.167Z,1.30
2023-04-17T02:39:05.879Z,1.33
2023-04-17T02:41:36.008Z,1.67
2023-04-17T02:46:42.684Z,1.40
2023-04-17T02:49:13.686Z,1.33
2023-04-17T02:51:45.003Z,1.42
2023-04-17T02:54:18.710Z,1.35
2023-04-17T02:56:56.708Z,1.10
2023-04-17T02:59:34.027Z,1.27
2023-04-17T03:02:06.843Z,1.17
2023-04-17T03:04:44.161Z,0.87
2023-04-17T03:07:20.782Z,1.50
2023-04-17T03:09:50.336Z,1.17
2023-04-17T03:12:30.815Z,1.27
2023-04-17T03:15:08.626Z,1.13
2023-04-17T03:17:44.586Z,1.30
2023-04-17T03:20:16.809Z,1.67
2023-04-17T03:22:55.707Z,1.10
2023-04-17T03:25:29.892Z,1.13
2023-04-17T03:28:08.863Z,1.23
2023-04-17T03:30:42.860Z,1.00
2023-04-17T03:33:28.211Z,1.10
2023-04-17T03:36:04.458Z,1.40
2023-04-17T03:38:34.161Z,1.00
2023-04-17T03:41:07.418Z,1.23
2023-04-17T03:46:24.931Z,1.43
2023-04-17T03:48:54.353Z,1.00
2023-04-17T03:51:29.890Z,1.70
2023-04-17T03:54:15.793Z,1.27
2023-04-17T03:56:54.072Z,1.38
2023-04-17T03:59:28.070Z,1.20
2023-04-17T04:02:14.341Z,1.40
2023-04-17T04:04:46.814Z,1.83
2023-04-17T04:07:26.435Z,0.93
2023-04-17T04:10:03.468Z,1.83
2023-04-17T04:12:35.888Z,1.77
2023-04-17T04:15:05.193Z,1.67
2023-04-17T04:17:39.534Z,1.50
2023-04-17T04:20:19.025Z,1.30
2023-04-17T04:23:02.781Z,1.60
2023-04-17T04:25:37.352Z,1.60
2023-04-17T04:28:19.679Z,1.50
2023-04-17T04:33:34.049Z,1.60
2023-04-17T04:36:10.315Z,1.30
2023-04-17T04:38:44.017Z,1.53
2023-04-17T04:41:25.205Z,1.40
2023-04-17T04:44:10.126Z,1.53
2023-04-17T04:47:01.632Z,1.20
2023-04-17T04:49:43.892Z,1.47
2023-04-17T04:52:19.223Z,1.50
2023-04-17T04:54:54.886Z,1.10
2023-04-17T05:00:13.543Z,1.27
2023-04-17T05:02:46.424Z,1.40
2023-04-17T05:05:21.537Z,1.80
2023-04-17T05:07:53.553Z,1.23
2023-04-17T05:10:33.855Z,1.13
2023-04-17T05:15:53.692Z,1.20
2023-04-17T05:18:34.503Z,1.80
2023-04-17T05:21:06.157Z,1.80
2023-04-17T05:23:40.116Z,1.60
2023-04-17T05:26:15.896Z,2.00
2023-04-17T05:28:46.300Z,1.70
2023-04-17T05:31:21.956Z,1.60
2023-04-17T05:33:52.072Z,1.50
2023-04-17T05:36:25.678Z,1.50
2023-04-17T05:39:00.512Z,0.93
2023-04-17T05:41:31.184Z,1.60
2023-04-17T05:44:05.442Z,1.63
2023-04-17T05:49:24.708Z,1.57
2023-04-17T05:51:54.610Z,2.00
2023-04-17T05:54:28.632Z,1.90
2023-04-17T05:57:01.245Z,1.43
2023-04-17T05:59:33.758Z,1.17
2023-04-17T06:02:04.220Z,1.30
2023-04-17T06:04:41.348Z,2.00
2023-04-17T06:07:12.310Z,2.03
2023-04-17T06:09:46.710Z,1.70
2023-04-17T06:15:14.356Z,1.40
2023-04-17T06:17:58.561Z,1.93
2023-04-17T06:20:33.501Z,1.57
2023-04-17T06:23:07.175Z,1.73
2023-04-17T06:25:46.643Z,1.65
2023-04-17T06:28:17.249Z,1.90
2023-04-17T06:31:05.914Z,1.30
2023-04-17T06:33:41.521Z,1.97
2023-04-17T06:36:11.533Z,1.13
2023-04-17T06:38:53.401Z,1.30
2023-04-17T06:41:44.880Z,1.53
2023-04-17T06:44:15.957Z,2.50
2023-04-17T06:46:55.708Z,1.90
2023-04-17T06:49:47.638Z,1.92
2023-04-17T06:52:27.728Z,1.30
2023-04-17T06:54:58.771Z,1.50
2023-04-17T06:57:32.358Z,1.63
2023-04-17T07:00:08.211Z,1.20
2023-04-17T07:02:48.649Z,1.03
2023-04-17T07:05:18.402Z,1.63
2023-04-17T07:10:32.636Z,1.30
2023-04-17T07:13:09.668Z,1.37
2023-04-17T07:15:44.268Z,0.90
2023-04-17T07:18:18.805Z,1.60
2023-04-17T07:21:03.456Z,1.30
2023-04-17T07:23:33.433Z,1.50
2023-04-17T07:26:07.130Z,0.90
2023-04-17T07:28:48.336Z,1.03
2023-04-17T07:31:18.739Z,1.13
2023-04-17T07:33:49.653Z,1.00
2023-04-17T07:36:21.724Z,1.00
2023-04-17T07:38:52.164Z,1.40
2023-04-17T07:41:20.135Z,1.17
2023-04-17T07:43:48.997Z,1.40
2023-04-17T07:46:20.014Z,1.50
2023-04-17T07:48:55.786Z,1.40
2023-04-17T07:51:27.711Z,2.20
2023-04-17T07:53:58.136Z,1.57
2023-04-17T07:56:39.191Z,1.60
2023-04-17T07:59:09.801Z,1.40
2023-04-17T08:01:49.589Z,1.88
2023-04-17T08:04:24.729Z,1.53
2023-04-17T08:06:53.714Z,1.03
2023-04-17T08:09:27.084Z,1.63
2023-04-17T08:11:58.433Z,2.00
2023-04-17T08:14:33.363Z,1.88
2023-04-17T08:17:04.672Z,1.80
2023-04-17T08:19:38.915Z,1.38
2023-04-17T08:22:17.353Z,1.57
2023-04-17T08:24:48.748Z,1.17
2023-04-17T08:27:19.986Z,0.88
2023-04-17T08:29:51.667Z,0.95
2023-04-17T08:35:14.838Z,0.90
2023-04-17T08:37:55.357Z,0.77
2023-04-17T08:40:29.244Z,0.73
2023-04-17T08:43:07.464Z,1.13
2023-04-17T08:45:38.565Z,0.83
2023-04-17T08:48:12.150Z,0.98
2023-04-17T08:50:54.448Z,0.63
2023-04-17T08:53:25.046Z,0.60
2023-04-17T08:55:55.563Z,0.60
2023-04-17T08:58:28.818Z,0.70
2023-04-17T09:01:14.326Z,0.57
2023-04-17T09:03:50.454Z,0.47
2023-04-17T09:06:21.843Z,0.20
2023-04-17T09:09:07.037Z,0.55
2023-04-17T09:11:37.408Z,0.53
2023-04-17T09:14:13.293Z,0.37
2023-04-17T09:16:57.558Z,0.60
2023-04-17T09:22:35.256Z,0.20
2023-04-17T09:25:13.197Z,0.57
2023-04-17T09:27:44.730Z,0.13
2023-04-17T09:30:18.368Z,0.28
2023-04-17T09:32:54.413Z,0.30
2023-04-17T09:35:32.042Z,0.30
2023-04-17T09:38:03.648Z,0.10
2023-04-17T09:40:45.674Z,0.70
2023-04-17T09:43:16.881Z,0.40
2023-04-17T09:45:47.994Z,0.35
2023-04-17T09:48:22.118Z,0.60
2023-04-17T09:50:56.608Z,0.40
2023-04-17T09:53:29.302Z,0.30
2023-04-17T09:56:03.976Z,0.23
2023-04-17T09:58:47.048Z,0.13
2023-04-17T10:01:17.870Z,0.40
2023-04-17T10:03:55.197Z,0.33
2023-04-17T10:06:53.812Z,0.30
2023-04-17T10:09:32.588Z,0.57
2023-04-17T10:12:04.223Z,0.40
2023-04-17T10:14:46.867Z,0.40
2023-04-17T10:17:37.407Z,0.40
2023-04-17T10:20:23.936Z,0.30
2023-04-17T10:22:58.936Z,0.37
2023-04-17T10:25:40.993Z,0.13
2023-04-17T10:28:16.263Z,0.20
2023-04-17T10:30:58.573Z,0.30
2023-04-17T10:33:30.976Z,0.37
2023-04-17T10:35:59.015Z,0.30
2023-04-17T10:38:43.957Z,0.30
2023-04-17T10:41:15.921Z,0.40
2023-04-17T10:43:57.461Z,0.33
2023-04-17T10:46:34.448Z,0.20
2023-04-17T10:49:13.710Z,0.40
2023-04-17T10:51:54.262Z,0.20
2023-04-17T10:54:28.482Z,0.40
2023-04-17T10:57:04.341Z,0.20
2023-04-17T10:59:35.067Z,0.40
2023-04-17T11:02:19.651Z,0.20
2023-04-17T11:04:51.782Z,0.57
2023-04-17T11:07:25.514Z,0.30
2023-04-17T11:10:01.883Z,0.27
2023-04-17T11:12:33.009Z,0.20
2023-04-17T11:15:07.265Z,0.30
2023-04-17T11:17:44.129Z,0.30
2023-04-17T11:20:18.359Z,0.10
2023-04-17T11:25:34.923Z,0.30
2023-04-17T11:28:16.129Z,0.17
2023-04-17T11:30:59.736Z,0.50
2023-04-17T11:33:36.905Z,0.40
2023-04-17T11:36:11.382Z,0.30
2023-04-17T11:44:29.752Z,0.20
2023-04-17T11:46:59.596Z,0.30
2023-04-17T11:49:41.437Z,0.57
2023-04-17T11:54:53.393Z,0.55
2023-04-17T11:57:27.720Z,0.40
2023-04-17T12:02:50.323Z,0.70
2023-04-17T12:05:22.371Z,0.67
2023-04-17T12:08:12.053Z,0.30
2023-04-17T12:10:49.276Z,0.50
2023-04-17T12:13:23.516Z,0.33
2023-04-17T12:15:57.709Z,0.40
2023-04-17T12:21:14.371Z,0.20
2023-04-17T12:23:45.426Z,0.43
2023-04-17T12:26:29.714Z,0.38
2023-04-17T12:29:03.261Z,0.50
2023-04-17T12:31:38.925Z,0.27
2023-04-17T12:34:09.617Z,0.33
2023-04-17T12:36:41.168Z,0.50
2023-04-17T12:39:18.905Z,0.75
2023-04-17T12:41:53.031Z,0.43
2023-04-17T12:44:32.324Z,0.50
2023-04-17T12:47:05.679Z,0.37
2023-04-17T12:49:36.011Z,0.60
2023-04-17T12:52:09.063Z,0.50
2023-04-17T12:54:41.499Z,0.30
2023-04-17T13:00:04.100Z,0.40
2023-04-17T13:02:32.413Z,0.40
2023-04-17T13:05:14.789Z,0.67
2023-04-17T13:07:54.008Z,0.50
2023-04-17T13:10:28.092Z,0.50
2023-04-17T13:12:59.127Z,0.70
2023-04-17T13:15:36.136Z,0.68
2023-04-17T13:18:09.014Z,0.47
2023-04-17T13:20:43.765Z,0.40
2023-04-17T13:23:15.398Z,0.97
2023-04-17T13:28:26.678Z,0.40
2023-04-17T13:30:57.669Z,0.53
2023-04-17T13:33:46.084Z,0.82
2023-04-17T13:36:19.906Z,3.40
2023-04-17T13:38:52.709Z,0.70
2023-04-17T13:41:22.289Z,2.60
2023-04-17T13:43:53.901Z,1.10
2023-04-17T13:49:09.814Z,1.63
2023-04-17T13:51:46.117Z,0.73
2023-04-17T13:54:17.510Z,0.93
2023-04-17T13:56:46.563Z,0.60
2023-04-17T13:59:21.993Z,0.60
2023-04-17T14:02:06.096Z,0.83
2023-04-17T14:04:36.348Z,1.30
2023-04-17T14:07:14.274Z,0.82
2023-04-17T14:09:45.297Z,0.70
2023-04-17T14:12:22.430Z,0.43
2023-04-17T14:14:58.148Z,0.53
2023-04-17T14:17:29.692Z,0.60
2023-04-17T14:20:10.482Z,0.80
2023-04-17T14:22:41.451Z,1.10
2023-04-17T14:25:15.210Z,0.80
2023-04-17T14:27:46.691Z,0.63
2023-04-17T14:30:26.716Z,0.95
2023-04-17T14:32:57.454Z,0.80
2023-04-17T14:35:28.846Z,0.90
2023-04-17T14:37:59.378Z,0.88
2023-04-17T14:40:31.060Z,0.97
2023-04-17T14:45:47.477Z,0.90
2023-04-17T14:48:18.222Z,0.55
2023-04-17T14:50:52.091Z,1.15
2023-04-17T14:53:28.603Z,0.70
2023-04-17T14:56:03.505Z,0.70
2023-04-17T14:58:33.326Z,0.60
2023-04-17T15:01:07.314Z,0.80
2023-04-17T15:03:47.767Z,0.83
2023-04-17T15:06:22.061Z,0.90
2023-04-17T15:08:53.169Z,0.70
2023-04-17T15:14:18.184Z,0.90
2023-04-17T15:16:53.168Z,0.93
2023-04-17T15:19:24.279Z,0.80
2023-04-17T15:21:57.988Z,0.57
2023-04-17T15:24:29.374Z,0.73
2023-04-17T15:26:58.953Z,0.70
2023-04-17T15:29:32.488Z,1.00
2023-04-17T15:32:05.285Z,1.00
2023-04-17T15:34:45.404Z,0.87
2023-04-17T15:37:16.328Z,0.80
2023-04-17T15:39:53.770Z,0.63
2023-04-17T15:42:29.474Z,1.10
2023-04-17T15:45:03.664Z,0.70
2023-04-17T15:47:34.605Z,0.90
2023-04-17T15:52:49.078Z,0.57
2023-04-17T15:55:19.352Z,1.07
2023-04-17T15:57:54.648Z,0.63
2023-04-17T16:03:20.341Z,0.70
2023-04-17T16:06:03.145Z,1.00
2023-04-17T16:08:40.587Z,1.00
2023-04-17T16:11:15.529Z,0.73
2023-04-17T16:13:44.551Z,0.80
2023-04-17T16:16:21.466Z,0.80
2023-04-17T16:19:05.352Z,1.07
2023-04-17T16:21:36.155Z,1.10
2023-04-17T16:24:06.840Z,0.90
2023-04-17T16:26:34.923Z,0.93
2023-04-17T16:29:08.241Z,0.67
2023-04-17T16:31:39.347Z,0.70
2023-04-17T16:34:10.770Z,1.10
2023-04-17T16:36:45.369Z,0.95
2023-04-17T16:39:16.773Z,1.03
2023-04-17T16:41:47.511Z,1.07
2023-04-17T16:44:16.507Z,1.17
2023-04-17T16:47:05.507Z,1.20
2023-04-17T16:49:38.430Z,0.80
2023-04-17T16:52:12.633Z,1.27
2023-04-17T16:54:46.918Z,0.83
2023-04-17T16:57:17.359Z,0.80
2023-04-17T16:59:48.117Z,0.60
2023-04-17T17:02:19.432Z,0.90
2023-04-17T17:07:32.777Z,0.90
2023-04-17T17:10:03.906Z,1.03
2023-04-17T17:12:33.357Z,1.38
2023-04-17T17:15:10.676Z,1.33
2023-04-17T17:17:41.632Z,1.00
2023-04-17T17:20:15.762Z,0.75
2023-04-17T17:22:46.304Z,1.00
2023-04-17T17:25:27.109Z,1.07
2023-04-17T17:27:57.922Z,1.10
2023-04-17T17:30:38.202Z,1.05
2023-04-17T17:33:06.216Z,1.20
2023-04-17T17:35:37.906Z,1.40
2023-04-17T17:38:12.201Z,1.08
2023-04-17T17:40:41.137Z,1.03
2023-04-17T17:43:13.642Z,1.20
2023-04-17T17:45:50.399Z,1.10
2023-04-17T17:48:21.498Z,1.00
2023-04-17T17:50:56.472Z,1.10
2023-04-17T17:53:27.542Z,0.93
2023-04-17T17:56:06.422Z,0.75
2023-04-17T17:58:51.410Z,1.17
2023-04-17T18:01:25.608Z,1.60
2023-04-17T18:03:56.377Z,0.90
2023-04-17T18:06:30.438Z,1.10
2023-04-17T18:09:01.608Z,1.03
2023-04-17T18:11:39.381Z,0.93
2023-04-17T18:14:19.010Z,1.40
2023-04-17T18:16:49.400Z,1.20
2023-04-17T18:19:28.679Z,1.10
2023-04-17T18:21:59.791Z,1.07
2023-04-17T18:24:32.784Z,0.90
2023-04-17T18:27:03.271Z,1.80
2023-04-17T18:29:37.287Z,1.10
2023-04-17T18:32:10.669Z,1.17
2023-04-17T18:34:41.101Z,1.30
2023-04-17T18:37:11.028Z,1.60
2023-04-17T18:39:42.677Z,1.53
2023-04-17T18:42:15.605Z,1.40
2023-04-17T18:44:58.724Z,1.30
2023-04-17T18:47:27.248Z,0.87
2023-04-17T18:50:00.825Z,1.13
2023-04-17T18:52:31.570Z,1.30
2023-04-17T18:55:07.584Z,1.50
2023-04-17T18:57:44.667Z,1.57
2023-04-17T19:00:16.737Z,2.20
2023-04-17T19:02:47.806Z,1.83
2023-04-17T19:05:17.142Z,2.33
2023-04-17T19:07:45.156Z,2.17
2023-04-17T19:10:17.780Z,2.30
2023-04-17T19:12:49.207Z,2.00
2023-04-17T19:15:23.938Z,2.13
2023-04-17T19:18:03.197Z,2.50
2023-04-17T19:20:35.626Z,1.87
2023-04-17T19:23:07.791Z,1.73
2023-04-17T19:25:41.566Z,1.73
2023-04-17T19:28:18.783Z,1.90
2023-04-17T19:33:44.465Z,1.77
2023-04-17T19:36:19.950Z,1.90
2023-04-17T19:44:02.351Z,1.53
2023-04-17T19:46:33.329Z,1.63
2023-04-17T19:49:05.043Z,1.20
2023-04-17T19:51:37.959Z,1.42
2023-04-17T19:54:09.932Z,1.63
2023-04-17T19:56:43.762Z,1.90
2023-04-17T19:59:21.180Z,1.33
2023-04-17T20:01:54.430Z,1.60
2023-04-17T20:04:29.026Z,1.80
2023-04-17T20:07:02.003Z,1.90
2023-04-17T20:09:32.812Z,1.87
2023-04-17T20:12:03.537Z,1.70
2023-04-17T20:17:23.292Z,1.83
2023-04-17T20:19:54.233Z,2.10
2023-04-17T20:22:25.371Z,1.80
2023-04-17T20:24:58.612Z,2.05
2023-04-17T20:27:32.951Z,2.50
2023-04-17T20:30:07.825Z,2.17
2023-04-17T20:32:51.750Z,3.27
2023-04-17T20:35:24.921Z,2.60
2023-04-17T20:37:53.209Z,2.00
2023-04-17T20:40:23.598Z,2.00
2023-04-17T20:42:57.374Z,2.00
2023-04-17T20:45:29.286Z,1.57
2023-04-17T20:48:07.143Z,1.57
2023-04-17T20:50:41.112Z,1.43
2023-04-17T20:53:10.269Z,1.60
2023-04-17T20:58:33.167Z,1.42
2023-04-17T21:01:16.553Z,1.92
2023-04-17T21:03:47.062Z,2.10
2023-04-17T21:06:21.931Z,1.33
2023-04-17T21:08:49.841Z,2.07
2023-04-17T21:11:21.425Z,1.67
2023-04-17T21:13:49.578Z,1.30
2023-04-17T21:16:20.560Z,1.90
2023-04-17T21:18:49.634Z,1.95
2023-04-17T21:21:25.100Z,1.50
2023-04-17T21:24:10.355Z,2.77
2023-04-17T21:26:41.772Z,1.47
2023-04-17T21:29:13.557Z,1.65
2023-04-17T21:34:13.377Z,1.60
2023-04-17T21:36:45.422Z,1.30
2023-04-17T21:39:15.624Z,1.60
2023-04-17T21:41:44.527Z,2.47
2023-04-17T21:44:18.741Z,1.70
2023-04-17T21:46:52.513Z,1.90
2023-04-17T21:49:20.969Z,1.73
2023-04-17T21:51:54.510Z,2.10
2023-04-17T21:54:25.384Z,2.17
2023-04-17T21:56:54.866Z,2.55
2023-04-17T21:59:32.188Z,2.27
2023-04-17T22:02:03.266Z,2.40
2023-04-17T22:04:31.045Z,2.10
2023-04-17T22:07:08.719Z,1.43
2023-04-17T22:09:42.604Z,1.73
2023-04-17T22:12:21.625Z,1.47
2023-04-17T22:14:52.792Z,1.57
2023-04-17T22:17:23.527Z,1.60
2023-04-17T22:19:56.875Z,1.50
2023-04-17T22:22:33.151Z,1.93
2023-04-17T22:25:03.763Z,1.40
2023-04-17T22:27:37.382Z,1.33
2023-04-17T22:30:06.988Z,2.03
2023-04-17T22:32:41.425Z,2.50
2023-04-17T22:35:21.848Z,2.03
2023-04-17T22:37:50.928Z,2.20
2023-04-17T22:40:22.716Z,2.23
2023-04-17T22:45:34.766Z,1.73
2023-04-17T22:48:08.882Z,2.47
2023-04-17T22:50:48.428Z,2.33
2023-04-17T22:53:28.120Z,2.50
2023-04-17T22:56:08.360Z,2.47
2023-04-17T22:58:44.566Z,1.90
2023-04-17T23:01:22.024Z,2.70
2023-04-17T23:03:52.382Z,2.27
2023-04-17T23:06:27.027Z,2.00
2023-04-17T23:08:59.445Z,1.80
2023-04-17T23:11:35.747Z,1.93
2023-04-17T23:14:05.756Z,1.87
2023-04-17T23:16:39.995Z,1.53
2023-04-17T23:19:11.698Z,2.03
2023-04-17T23:21:46.036Z,1.92
2023-04-17T23:24:22.756Z,2.03
2023-04-17T23:26:57.446Z,1.90
2023-04-17T23:29:29.238Z,1.50
2023-04-17T23:32:01.881Z,1.20
2023-04-17T23:34:35.917Z,1.90
2023-04-17T23:37:06.970Z,2.10
2023-04-17T23:39:37.847Z,1.85
2023-04-17T23:42:12.337Z,1.60
2023-04-17T23:44:45.701Z,1.93
2023-04-17T23:47:22.786Z,1.77
2023-04-17T23:49:51.815Z,1.23
2023-04-17T23:52:22.311Z,1.33
2023-04-17T23:54:52.471Z,1.60
2023-04-17T23:57:21.269Z,1.93
2023-04-17T23:59:52.762Z,1.60
